Weather at La Guardia Airport

Public forecast

Using degrees Fahrenheit for public forecast. Weather courtesy of forecast.io.

Current aviation weather report (METAR) for La Guardia Airport

Retrieved 2022/01/29 11:51 UTC (1 hour ago):

KLGA 291151Z 35022G34KT 1/2SM R04/3500V4000FT SN BLSN FZFG VV006 M07/M10 A2968 RMK AO2 PK WND 35040/1134 SLP051 SNINCR 1/6 931037 4/006 P0002 60015 70029 T10721100 11022 21072 56015

Aviation forecast (TAF) for La Guardia Airport

Retrieved 2022/01/29 12:36 UTC (18 minutes ago):

TAF KLGA 291134Z 2912/3018 01025G35KT 1/2SM SN BLSN FZFG BKN007 OVC012 TEMPO 2912/2915 1/4SM SN BLSN FZFG FM291500 35028G37KT 1/2SM SN BLSN FZFG SCT007 OVC015 TEMPO 2915/2919 1/4SM SN BLSN FZFG FM292000 32028G37KT 1SM -SN BLSN OVC015 FM292200 32025G35KT P6SM VCSH SCT025 BKN035 FM300200 31022G30KT P6SM BKN060 FM300700 32018G26KT P6SM SCT250 FM301300 30014G22KT P6SM SKC